Latest Coastal Weather Observations for Hamilton Island

IDQ60701

Issued at 4:01 pm EST Wednesday 1 April 2015 (issued every 10 minutes, with the page automatically refreshed every 10 minutes)

About coastal observations | Map of coastal stations | Coastal observations for QLD | Marine services | Other Formats
Station Details ID: 033106 Name: HAMILTON ISLAND AIRPORT Lat: -20.37 Lon: 148.95 Height: 58.66 m
Data from the previous 72 hours. | See also: Recent months at Hamilton Island
Date/Time
EST
Temp

°C
Wind Pressure Rain
since 9am
mm
Weather Cloud Vis
km
Sea
Height
m
Swell
Dir
 
Speed
knots
Gust
knots
hPa Trend Height
m
Period
s
Dir
01/04:00pm 26.6 SSE 18 21 1012.4 - 0.2 - Partly cloudy 10 - - - -
01/03:30pm 27.5 SE 18 21 1012.4 - 0.2 - Partly cloudy 10 - - - -
01/03:00pm 27.9 SE 17 22 1012.3 - 0.2 - Cloudy 10 - - - -
01/02:30pm 27.8 SE 20 23 1012.8 - 0.2 - Partly cloudy 10 - - - -
01/02:00pm 28.0 SE 19 23 1013.2 - 0.2 - Partly cloudy 10 - - - -
01/01:30pm 27.1 SE 14 16 1013.6 - 0.2 - Partly cloudy 10 - - - -
01/01:00pm 25.0 SE 26 31 1013.9 - 0.2 - Partly cloudy 10 - - - -
01/12:30pm 28.2 SE 20 25 1014.4 - 0.2 - Partly cloudy 10 - - - -
01/12:00pm 26.3 SE 22 25 1014.8 - 0.2 - Cloudy 10 - - - -
01/11:32am 26.2 ESE 24 34 1015.1 - 0.2 - Partly cloudy 10 - - - -
01/11:30am 27.0 ESE 22 27 1015.2 - 0.2 - Partly cloudy 10 - - - -
01/11:00am 26.6 ESE 25 29 1015.6 - 0.2 - Partly cloudy 10 - - - -
01/10:30am 26.4 SE 23 28 1016.1 - 0.2 - Partly cloudy 10 - - - -
01/10:00am 27.6 SSE 23 27 1016.2 - 0.0 - Partly cloudy 10 - - - -
01/09:30am 27.6 SSE 21 24 1016.4 - 0.0 - Partly cloudy 10 - - - -
01/09:00am 26.2 SE 23 30 1016.0 - 3.2 - Cloudy 10 - - - -
01/08:30am 25.4 SE 22 27 1016.0 - 3.2 - Partly cloudy 10 - - - -
01/08:00am 25.3 SE 19 23 1015.8 - 3.2 - Partly cloudy 9 - - - -
01/07:30am 25.4 SE 23 27 1015.7 - 3.2 - Partly cloudy 10 - - - -
01/07:00am 25.9 SE 22 25 1015.4 - 3.0 - - 10 - - - -
01/06:30am 25.7 SE 22 27 1015.1 - 3.0 - Partly cloudy 10 - - - -
01/06:00am 25.4 SE 22 26 1014.5 - 3.0 - Mostly clear 10 - - - -
01/05:30am 25.5 SE 23 26 1014.4 - 3.0 - Partly cloudy 10 - - - -
01/05:00am 25.5 SE 23 28 1014.3 - 3.0 - Partly cloudy 10 - - - -
01/04:30am 25.4 SE 21 24 1014.0 - 3.0 - Partly cloudy 10 - - - -
01/04:00am 25.4 ESE 22 25 1014.0 - 3.0 - Partly cloudy 10 - - - -
01/03:30am 25.3 ESE 23 29 1013.7 - 3.0 - Partly cloudy 10 - - - -
01/03:00am 25.3 SE 22 25 1013.7 - 3.0 - Mostly clear 10 - - - -
01/02:30am 25.2 SE 23 27 1014.2 - 3.0 - Cloudy 10 - - - -
01/02:00am 24.9 SE 24 28 1015.1 - 3.0 - Partly cloudy 10 - - - -
01/01:30am 25.0 SE 24 31 1015.2 - 2.8 - Partly cloudy 10 - - - -
01/01:00am 24.8 ESE 22 26 1015.9 - 2.8 - Partly cloudy 10 - - - -
01/12:30am 24.7 ESE 25 29 1016.3 - 2.8 - Partly cloudy 10 - - - -
01/12:10am 24.7 SE 24 29 1016.4 - 2.8 - Partly cloudy 10 - - - -
01/12:00am 24.5 SE 25 31 1016.3 - 2.8 - Cloudy 10 - - - -
 
Date/Time
EST
Temp

°C
Wind Pressure Rain
since 9am
mm
Weather Cloud Vis
km
Sea
Height
m
Swell
Dir
 
Speed
knots
Gust
knots
hPa Trend Height
m
Period
s
Dir
31/11:44pm 25.7 SE 21 24 1016.8 - 2.6 - Partly cloudy 10 - - - -
31/11:30pm 25.7 SE 23 26 1016.9 - 2.6 - Partly cloudy 10 - - - -
31/11:00pm 25.6 SE 24 31 1016.8 - 2.6 - Partly cloudy 10 - - - -
31/10:46pm 25.7 SE 27 31 1016.7 - 2.6 - Partly cloudy 10 - - - -
31/10:34pm 25.6 SE 26 30 1016.8 - 2.6 - Partly cloudy 10 - - - -
31/10:30pm 25.5 SE 26 30 1016.7 - 2.6 - Partly cloudy 10 - - - -
31/10:00pm 24.9 ESE 21 26 1016.9 - 2.6 - Partly cloudy 10 - - - -
31/09:30pm 26.0 SE 22 26 1017.0 - 2.6 - - 10 - - - -
31/09:00pm 25.8 SE 18 21 1016.7 - 2.6 - - 10 - - - -
31/08:30pm 25.7 ESE 21 24 1016.7 - 2.6 - - 10 - - - -
31/08:00pm 26.0 SE 19 23 1016.5 - 2.6 - - 10 - - - -
31/07:30pm 26.1 SE 18 21 1016.1 - 2.6 - - 10 - - - -
31/07:00pm 25.9 SE 16 19 1015.9 - 2.6 - Partly cloudy 10 - - - -
31/06:30pm 25.6 SE 16 20 1015.6 - 2.6 - Partly cloudy 10 - - - -
31/06:00pm 25.9 SE 16 19 1015.1 - 2.6 - Partly cloudy 10 - - - -
31/05:30pm 26.3 SE 14 17 1015.1 - 2.6 - - 10 - - - -
31/05:00pm 26.4 SE 14 17 1014.9 - 2.6 - Partly cloudy 10 - - - -
31/04:30pm 26.0 SE 13 15 1014.7 - 2.6 - Partly cloudy 10 - - - -
31/04:00pm 25.5 SE 14 16 1014.5 - 2.6 - Partly cloudy 10 - - - -
31/03:51pm 25.3 SE 14 17 1014.5 - 2.6 - Partly cloudy 10 - - - -
31/03:34pm 24.6 SE 19 26 1014.6 - 2.6 - Partly cloudy 6 - - - -
31/03:30pm 24.7 ESE 19 26 1014.6 - 2.6 - Partly cloudy 10 - - - -
31/03:00pm 27.0 SE 14 19 1014.5 - 2.4 - Cloudy 10 - - - -
31/02:30pm 26.7 SSE 17 21 1014.8 - 2.4 - Partly cloudy 10 - - - -
31/02:00pm 27.2 SSE 15 19 1015.3 - 2.2 - Partly cloudy 10 - - - -
31/01:30pm 27.0 SSE 14 17 1015.9 - 2.2 - Partly cloudy 10 - - - -
31/01:00pm 25.2 SSE 17 23 1016.2 - 2.2 - Partly cloudy 10 - - - -
31/12:30pm 25.4 S 19 24 1016.5 - 2.2 - Partly cloudy 10 - - - -
31/12:26pm 25.5 S 18 24 1016.6 - 2.2 - Partly cloudy 10 - - - -
31/12:09pm 25.8 S 15 19 1016.9 - 2.2 - Partly cloudy 10 - - - -
31/12:00pm 25.8 S 14 18 1016.9 - 2.2 - Cloudy 10 - - - -
31/11:48am 26.2 SSE 15 19 1017.3 - 2.2 - Partly cloudy 10 - - - -
31/11:30am 25.7 SSE 15 22 1017.8 - 2.2 - Partly cloudy 10 - - - -
31/11:29am 25.9 SSE 14 22 1017.8 - 2.2 - Partly cloudy 10 - - - -
31/11:00am 27.7 SE 18 20 1018.0 - 2.2 - Partly cloudy 10 - - - -
31/10:30am 27.2 SE 16 19 1018.4 - 2.2 - Partly cloudy 10 - - - -
31/10:08am 26.2 SE 16 20 1018.5 - 2.2 - Partly cloudy 10 - - - -
31/10:00am 25.7 SE 19 25 1018.6 - 2.2 - Partly cloudy 10 - - - -
31/09:48am 25.3 SE 23 26 1018.2 - 2.2 - Partly cloudy 10 - - - -
31/09:30am 24.8 SE 26 32 1018.1 - 1.8 - Partly cloudy 5 - - - -
31/09:28am 24.7 SE 27 32 1018.1 - 1.6 - Partly cloudy 6 - - - -
31/09:24am 25.1 SE 28 33 1018.1 - 1.2 - Partly cloudy 10 - - - -
31/09:11am 24.9 SSE 19 29 1017.9 - 0.8 - Partly cloudy 5 - - - -
31/09:07am 25.1 S 16 24 1018.1 - 0.8 - Partly cloudy 6 - - - -
31/09:00am 24.8 S 16 20 1017.8 - 1.0 - Cloudy 10 - - - -
31/08:50am 25.0 SSE 17 22 1018.1 - 1.0 - Partly cloudy 10 - - - -
31/08:35am 24.7 SSE 21 26 1018.0 - 1.0 - Partly cloudy 6 - - - -
31/08:30am 24.7 SSE 21 26 1018.0 - 1.0 - Partly cloudy 10 - - - -
31/08:15am 24.4 SSE 24 29 1017.8 - 0.6 - Partly cloudy 10 - - - -
31/08:03am 25.5 SSE 20 25 1017.8 - 0.6 - Partly cloudy 4 - - - -
31/08:00am 25.6 SSE 20 23 1017.7 - 0.6 - Partly cloudy 4 - - - -
31/07:56am 25.3 SSE 18 23 1017.8 - 0.6 - Partly cloudy 5 - - - -
31/07:30am 25.5 S 14 19 1017.4 - 0.6 - Partly cloudy 10 - - - -
31/07:00am 26.6 ESE 15 17 1017.0 - 0.4 - Partly cloudy 10 - - - -
31/06:30am 26.6 ESE 16 19 1016.4 - 0.4 - Partly cloudy 10 - - - -
31/06:00am 26.5 ESE 17 19 1015.9 - 0.4 - Mostly clear 10 - - - -
31/05:30am 26.5 E 19 21 1016.1 - 0.4 - Partly cloudy 10 - - - -
31/05:00am 26.6 ESE 19 22 1015.9 - 0.4 - Partly cloudy 10 - - - -
31/04:30am 26.5 E 18 21 1015.6 - 0.4 - Partly cloudy 10 - - - -
31/04:00am 26.1 ESE 16 19 1015.6 - 0.4 - Partly cloudy 10 - - - -
31/03:30am 25.9 ESE 16 19 1015.7 - 0.4 - Partly cloudy 10 - - - -
31/03:00am 25.8 ESE 19 21 1015.6 - 0.4 - Cloudy 10 - - - -
31/02:30am 25.7 ESE 17 20 1015.9 - 0.4 - Partly cloudy 10 - - - -
31/02:12am 26.3 E 18 28 1015.9 - 0.0 - Partly cloudy 10 - - - -
31/02:00am 26.3 E 17 21 1016.2 - 0.0 - Partly cloudy 10 - - - -
31/01:30am 26.1 ESE 17 20 1016.7 - 0.0 - Partly cloudy 10 - - - -
31/01:19am 26.1 ESE 18 20 1016.8 - 0.0 - Partly cloudy 10 - - - -
31/01:09am 26.0 SE 16 21 1016.9 - 0.0 - Partly cloudy 10 - - - -
31/01:00am 25.8 ESE 17 24 1017.0 - 0.0 - Partly cloudy 10 - - - -
31/12:30am 26.5 ESE 15 18 1017.4 - 0.0 - Partly cloudy 10 - - - -
31/12:00am 26.5 ESE 15 17 1017.4 - 0.0 - Mostly clear 10 - - - -
 
Date/Time
EST
Temp

°C
Wind Pressure Rain
since 9am
mm
Weather Cloud Vis
km
Sea
Height
m
Swell
Dir
 
Speed
knots
Gust
knots
hPa Trend Height
m
Period
s
Dir
30/11:30pm 26.8 ESE 16 20 1017.9 - 0.0 - Partly cloudy 10 - - - -
30/11:00pm 26.6 ESE 17 20 1018.1 - 0.0 - Partly cloudy 10 - - - -
30/10:30pm 26.9 ESE 16 19 1018.4 - 0.0 - Partly cloudy 10 - - - -
30/10:00pm 27.0 ESE 18 21 1018.5 - 0.0 - Partly cloudy 10 - - - -
30/09:30pm 27.0 ESE 15 17 1018.6 - 0.0 - Partly cloudy 10 - - - -
30/09:00pm 26.9 ESE 15 18 1018.3 - 0.0 - - 10 - - - -
30/08:30pm 27.0 ESE 16 20 1018.6 - 0.0 - Partly cloudy 10 - - - -
30/08:00pm 27.2 ESE 15 18 1018.4 - 0.0 - Partly cloudy 10 - - - -
30/07:30pm 27.0 ESE 17 19 1017.9 - 0.0 - Partly cloudy 10 - - - -
30/07:00pm 27.1 ESE 17 19 1017.7 - 0.0 - - 10 - - - -
30/06:30pm 27.2 ESE 18 20 1017.6 - 0.0 - Partly cloudy 10 - - - -
30/06:00pm 27.1 ESE 17 19 1017.0 - 0.0 - Partly cloudy 10 - - - -
30/05:30pm 27.4 ESE 17 21 1017.1 - 0.0 - Partly cloudy 10 - - - -
30/05:00pm 27.5 ESE 17 20 1016.8 - 0.0 - - 10 - - - -
30/04:30pm 27.7 ESE 18 20 1016.6 - 0.0 - - 10 - - - -
30/04:00pm 28.2 ESE 18 20 1016.4 - 0.0 - Partly cloudy 10 - - - -
30/03:30pm 28.6 ESE 17 21 1016.3 - 0.0 - - 10 - - - -
30/03:00pm 29.0 ESE 17 21 1015.8 - 0.0 - Mostly clear 10 - - - -
30/02:30pm 28.6 SE 18 20 1016.0 - 0.0 - Partly cloudy 10 - - - -
30/02:00pm 29.5 ESE 15 19 1016.2 - 0.0 - - 10 - - - -
30/01:30pm 29.1 ESE 17 19 1016.5 - 0.0 - - 10 - - - -
30/01:00pm 29.6 ESE 16 19 1017.3 - 0.0 - - 10 - - - -
30/12:30pm 29.4 ESE 17 19 1017.5 - 0.0 - Partly cloudy 10 - - - -
30/12:00pm 29.3 ESE 18 20 1017.6 - 0.0 - Mostly clear 10 - - - -
30/11:30am 28.9 ESE 18 20 1018.3 - 0.0 - - 10 - - - -
30/11:00am 29.6 ESE 17 20 1018.8 - 0.0 - - 10 - - - -
30/10:30am 28.8 ESE 17 21 1019.1 - 0.0 - - 10 - - - -
30/10:00am 28.9 ESE 16 20 1019.2 - 0.0 - Partly cloudy 10 - - - -
30/09:30am 28.8 ESE 19 22 1019.2 - 0.0 - Partly cloudy 10 - - - -
30/09:00am 28.7 ESE 19 22 1018.8 - 0.0 - Mostly clear 10 - - - -
30/08:30am 27.9 E 20 23 1018.9 - 0.0 - Partly cloudy 10 - - - -
30/08:00am 27.8 ESE 21 25 1018.4 - 0.0 - Partly cloudy 10 - - - -
30/07:30am 27.5 ESE 19 23 1018.0 - 0.0 - Partly cloudy 10 - - - -
30/07:00am 27.3 ESE 18 23 1017.9 - 0.0 - - 10 - - - -
30/06:30am 26.8 ESE 20 25 1017.6 - 0.0 - Partly cloudy 10 - - - -
30/06:00am 26.5 ESE 19 22 1017.1 - 0.0 - Mostly clear 10 - - - -
30/05:30am 26.6 ESE 21 25 1017.1 - 0.0 - Partly cloudy 10 - - - -
30/05:00am 26.7 ESE 21 25 1016.8 - 0.0 - Partly cloudy 10 - - - -
30/04:30am 26.8 ESE 21 27 1016.6 - 0.0 - Partly cloudy 10 - - - -
30/04:00am 26.7 ESE 22 26 1016.4 - 0.0 - Partly cloudy 10 - - - -
30/03:30am 26.6 ESE 20 24 1016.4 - 0.0 - Partly cloudy 10 - - - -
30/03:00am 26.6 ESE 21 25 1016.0 - 0.0 - Partly cloudy 10 - - - -
30/02:30am 26.8 ESE 21 25 1016.6 - 0.0 - Partly cloudy 10 - - - -
30/02:00am 26.7 ESE 20 24 1016.9 - 0.0 - Partly cloudy 10 - - - -
30/01:30am 26.8 ESE 22 26 1017.3 - 0.0 - Partly cloudy 10 - - - -
30/01:00am 27.0 ESE 22 26 1017.5 - 0.0 - Partly cloudy 10 - - - -
30/12:30am 26.9 ESE 24 29 1017.8 - 0.0 - Partly cloudy 10 - - - -
30/12:00am 26.9 ESE 25 28 1017.6 - 0.0 - Mostly clear 10 - - - -
 
Date/Time
EST
Temp

°C
Wind Pressure Rain
since 9am
mm
Weather Cloud Vis
km
Sea
Height
m
Swell
Dir
 
Speed
knots
Gust
knots
hPa Trend Height
m
Period
s
Dir
29/11:30pm 27.0 ESE 25 28 1018.1 - 0.0 - Partly cloudy 10 - - - -
29/11:00pm 26.9 ESE 19 23 1018.7 - 0.0 - Partly cloudy 10 - - - -
29/10:30pm 27.2 ESE 20 25 1018.7 - 0.0 - Partly cloudy 10 - - - -
29/10:00pm 27.0 ESE 22 25 1018.7 - 0.0 - Partly cloudy 10 - - - -
29/09:30pm 27.1 ESE 21 26 1018.9 - 0.0 - Partly cloudy 10 - - - -
29/09:00pm 26.9 ESE 21 24 1018.5 - 0.0 - Mostly clear 10 - - - -
29/08:30pm 27.1 ESE 19 23 1018.7 - 0.0 - - 10 - - - -
29/08:00pm 27.1 ESE 20 25 1018.5 - 0.0 - Partly cloudy 10 - - - -
29/07:30pm 27.0 ESE 20 24 1018.2 - 0.0 - Partly cloudy 10 - - - -
29/07:00pm 27.1 ESE 18 23 1017.9 - 0.0 - Partly cloudy 10 - - - -
29/06:30pm 27.1 SE 19 23 1017.6 - 0.0 - Partly cloudy 10 - - - -
29/06:00pm 27.2 SE 20 22 1017.2 - 0.0 - Cloudy 10 - - - -
29/05:30pm 27.3 SE 19 22 1017.1 - 0.0 - Partly cloudy 10 - - - -
29/05:00pm 27.4 ESE 20 23 1016.9 - 0.0 - Partly cloudy 10 - - - -
29/04:30pm 27.6 ESE 19 22 1016.8 - 0.0 - Partly cloudy 10 - - - -

Other Formats:

Comma delimited format used in spreadsheet applications
http://www.bom.gov.au/fwo/IDQ60701/IDQ60701.94368.axf

JavaScript Object Notation format (JSON) in row-major order
http://www.bom.gov.au/fwo/IDQ60701/IDQ60701.94368.json